sensor_id;sensor_type;location;lat;lon;timestamp;pressure;altitude;pressure_sealevel;temperature;humidity
58056;BME280;53159;55.152;36.614;2022-08-19T00:01:34;100087.69;;;19.10;64.45
58056;BME280;53159;55.152;36.614;2022-08-19T00:04:04;100085.03;;;19.14;64.06
58056;BME280;53159;55.152;36.614;2022-08-19T00:06:34;100082.38;;;19.13;64.68
58056;BME280;53159;55.152;36.614;2022-08-19T00:09:04;100089.44;;;19.08;64.69
58056;BME280;53159;55.152;36.614;2022-08-19T00:11:32;100087.66;;;19.11;64.66
58056;BME280;53159;55.152;36.614;2022-08-19T00:14:00;100083.28;;;19.10;64.80
58056;BME280;53159;55.152;36.614;2022-08-19T00:16:28;100094.72;;;19.01;65.21
58056;BME280;53159;55.152;36.614;2022-08-19T00:18:55;100093.84;;;19.01;65.48
58056;BME280;53159;55.152;36.614;2022-08-19T00:21:23;100084.22;;;18.86;65.83
58056;BME280;53159;55.152;36.614;2022-08-19T00:23:51;100104.34;;;18.87;66.11
58056;BME280;53159;55.152;36.614;2022-08-19T00:26:17;100102.63;;;18.88;66.06
58056;BME280;53159;55.152;36.614;2022-08-19T00:28:45;100106.13;;;18.85;66.85
58056;BME280;53159;55.152;36.614;2022-08-19T00:31:13;100097.41;;;18.74;67.07
58056;BME280;53159;55.152;36.614;2022-08-19T00:33:43;100105.28;;;18.75;67.37
58056;BME280;53159;55.152;36.614;2022-08-19T00:36:11;100112.25;;;18.75;67.21
58056;BME280;53159;55.152;36.614;2022-08-19T00:38:39;100113.16;;;18.75;67.67
58056;BME280;53159;55.152;36.614;2022-08-19T00:41:16;100109.66;;;18.78;69.27
58056;BME280;53159;55.152;36.614;2022-08-19T00:44:05;100121.91;;;18.79;71.74
58056;BME280;53159;55.152;36.614;2022-08-19T00:46:35;100114.91;;;18.75;72.59
58056;BME280;53159;55.152;36.614;2022-08-19T00:49:09;100120.16;;;18.68;73.85
58056;BME280;53159;55.152;36.614;2022-08-19T00:51:43;100120.19;;;18.61;75.06
58056;BME280;53159;55.152;36.614;2022-08-19T00:54:12;100117.53;;;18.56;76.16
58056;BME280;53159;55.152;36.614;2022-08-19T00:56:39;100107.06;;;18.42;73.57
58056;BME280;53159;55.152;36.614;2022-08-19T00:59:06;100135.97;;;18.48;73.42
58056;BME280;53159;55.152;36.614;2022-08-19T01:01:36;100129.84;;;18.48;73.38
58056;BME280;53159;55.152;36.614;2022-08-19T01:04:03;100148.22;;;18.45;72.63
58056;BME280;53159;55.152;36.614;2022-08-19T01:06:32;100134.22;;;18.38;71.74
58056;BME280;53159;55.152;36.614;2022-08-19T01:09:00;100130.72;;;18.47;71.67
58056;BME280;53159;55.152;36.614;2022-08-19T01:11:27;100133.34;;;18.48;71.25
58056;BME280;53159;55.152;36.614;2022-08-19T01:13:55;100131.59;;;18.57;70.83
58056;BME280;53159;55.152;36.614;2022-08-19T01:16:25;100123.69;;;18.61;70.64
58056;BME280;53159;55.152;36.614;2022-08-19T01:18:54;100131.59;;;18.57;70.70
58056;BME280;53159;55.152;36.614;2022-08-19T01:21:41;100134.19;;;18.60;70.69
58056;BME280;53159;55.152;36.614;2022-08-19T01:24:09;100131.56;;;18.58;70.70
58056;BME280;53159;55.152;36.614;2022-08-19T01:26:42;100135.97;;;18.59;70.87
58056;BME280;53159;55.152;36.614;2022-08-19T01:29:11;100135.94;;;18.62;70.79
58056;BME280;53159;55.152;36.614;2022-08-19T01:31:39;100135.09;;;18.66;70.61
58056;BME280;53159;55.152;36.614;2022-08-19T01:34:06;100141.22;;;18.70;71.68
58056;BME280;53159;55.152;36.614;2022-08-19T01:39:07;100128.06;;;18.56;71.59
58056;BME280;53159;55.152;36.614;2022-08-19T01:41:35;100139.47;;;18.64;73.79
58056;BME280;53159;55.152;36.614;2022-08-19T01:44:02;100136.84;;;18.67;74.52
58056;BME280;53159;55.152;36.614;2022-08-19T01:46:31;100144.72;;;18.71;76.20
58056;BME280;53159;55.152;36.614;2022-08-19T01:48:59;100145.59;;;18.68;77.64
58056;BME280;53159;55.152;36.614;2022-08-19T01:51:26;100147.34;;;18.71;77.91
58056;BME280;53159;55.152;36.614;2022-08-19T01:53:53;100149.97;;;18.60;75.57
58056;BME280;53159;55.152;36.614;2022-08-19T01:56:20;100166.63;;;18.54;74.08
58056;BME280;53159;55.152;36.614;2022-08-19T01:59:10;100169.25;;;18.56;73.37
58056;BME280;53159;55.152;36.614;2022-08-19T02:01:39;100167.50;;;18.58;75.90
58056;BME280;53159;55.152;36.614;2022-08-19T02:04:06;100164.88;;;18.55;74.02
58056;BME280;53159;55.152;36.614;2022-08-19T02:06:33;100164.00;;;18.56;76.27
58056;BME280;53159;55.152;36.614;2022-08-19T02:09:00;100169.25;;;18.56;74.51
58056;BME280;53159;55.152;36.614;2022-08-19T02:11:31;100164.88;;;18.59;73.44
58056;BME280;53159;55.152;36.614;2022-08-19T02:14:00;100164.88;;;18.61;73.75
58056;BME280;53159;55.152;36.614;2022-08-19T02:16:28;100152.63;;;18.55;74.25
58056;BME280;53159;55.152;36.614;2022-08-19T02:18:55;100153.47;;;18.62;74.28
58056;BME280;53159;55.152;36.614;2022-08-19T02:21:23;100155.25;;;18.61;74.35
58056;BME280;53159;55.152;36.614;2022-08-19T02:23:50;100164.00;;;18.62;73.64
58056;BME280;53159;55.152;36.614;2022-08-19T02:26:18;100174.50;;;18.63;74.64
58056;BME280;53159;55.152;36.614;2022-08-19T02:28:46;100176.28;;;18.57;73.68
58056;BME280;53159;55.152;36.614;2022-08-19T02:31:17;100171.88;;;18.51;73.13
58056;BME280;53159;55.152;36.614;2022-08-19T02:33:45;100181.50;;;18.41;72.84
58056;BME280;53159;55.152;36.614;2022-08-19T02:36:13;100184.16;;;18.38;72.92
58056;BME280;53159;55.152;36.614;2022-08-19T02:38:41;100187.66;;;18.37;72.70
58056;BME280;53159;55.152;36.614;2022-08-19T02:41:16;100190.28;;;18.42;72.73
58056;BME280;53159;55.152;36.614;2022-08-19T02:43:43;100194.66;;;18.40;72.83
58056;BME280;53159;55.152;36.614;2022-08-19T02:46:19;100185.00;;;18.37;73.03
58056;BME280;53159;55.152;36.614;2022-08-19T02:48:58;100192.00;;;18.41;73.15
58056;BME280;53159;55.152;36.614;2022-08-19T02:51:32;100192.88;;;18.40;72.94
58056;BME280;53159;55.152;36.614;2022-08-19T02:54:02;100192.88;;;18.46;72.64
58056;BME280;53159;55.152;36.614;2022-08-19T02:56:31;100189.41;;;18.49;72.59
58056;BME280;53159;55.152;36.614;2022-08-19T02:59:00;100192.91;;;18.43;72.26
58056;BME280;53159;55.152;36.614;2022-08-19T03:01:29;100199.91;;;18.44;72.41
58056;BME280;53159;55.152;36.614;2022-08-19T03:04:04;100196.41;;;18.41;72.62
58056;BME280;53159;55.152;36.614;2022-08-19T03:06:31;100193.78;;;18.47;72.34
58056;BME280;53159;55.152;36.614;2022-08-19T03:08:59;100199.94;;;18.43;72.46
58056;BME280;53159;55.152;36.614;2022-08-19T03:11:29;100192.88;;;18.34;72.76
58056;BME280;53159;55.152;36.614;2022-08-19T03:13:56;100202.53;;;18.38;72.35
58056;BME280;53159;55.152;36.614;2022-08-19T03:16:26;100197.28;;;18.38;72.60
58056;BME280;53159;55.152;36.614;2022-08-19T03:18:53;100201.66;;;18.44;72.57
58056;BME280;53159;55.152;36.614;2022-08-19T03:21:24;100190.25;;;18.39;72.54
58056;BME280;53159;55.152;36.614;2022-08-19T03:23:59;100190.28;;;18.42;72.54
58056;BME280;53159;55.152;36.614;2022-08-19T03:26:28;100189.41;;;18.49;72.49
58056;BME280;53159;55.152;36.614;2022-08-19T03:28:57;100189.41;;;18.55;76.10
58056;BME280;53159;55.152;36.614;2022-08-19T03:31:27;100196.41;;;18.53;74.87
58056;BME280;53159;55.152;36.614;2022-08-19T03:33:54;100195.53;;;18.51;73.99
58056;BME280;53159;55.152;36.614;2022-08-19T03:36:24;100196.41;;;18.41;73.77
58056;BME280;53159;55.152;36.614;2022-08-19T03:38:55;100202.53;;;18.44;73.37
58056;BME280;53159;55.152;36.614;2022-08-19T03:41:25;100191.16;;;18.51;73.05
58056;BME280;53159;55.152;36.614;2022-08-19T03:43:52;100192.06;;;18.61;74.92
58056;BME280;53159;55.152;36.614;2022-08-19T03:46:22;100198.16;;;18.69;77.64
58056;BME280;53159;55.152;36.614;2022-08-19T03:48:52;100188.53;;;18.68;77.63
58056;BME280;53159;55.152;36.614;2022-08-19T03:51:25;100188.53;;;18.72;79.78
58056;BME280;53159;55.152;36.614;2022-08-19T03:53:53;100185.03;;;18.79;80.70
58056;BME280;53159;55.152;36.614;2022-08-19T03:56:22;100183.28;;;18.72;76.04
58056;BME280;53159;55.152;36.614;2022-08-19T03:58:57;100176.25;;;18.80;74.98
58056;BME280;53159;55.152;36.614;2022-08-19T04:01:27;100178.03;;;18.95;74.32
58056;BME280;53159;55.152;36.614;2022-08-19T04:03:59;100182.41;;;19.08;73.72
58056;BME280;53159;55.152;36.614;2022-08-19T04:06:32;100185.00;;;19.27;72.79
58056;BME280;53159;55.152;36.614;2022-08-19T04:09:01;100182.28;;;19.47;71.32
58056;BME280;53159;55.152;36.614;2022-08-19T04:11:31;100186.53;;;19.77;70.08
58056;BME280;53159;55.152;36.614;2022-08-19T04:14:00;100183.84;;;19.94;68.68
58056;BME280;53159;55.152;36.614;2022-08-19T04:16:28;100193.53;;;19.94;68.44
58056;BME280;53159;55.152;36.614;2022-08-19T04:19:01;100198.69;;;20.08;67.70
58056;BME280;53159;55.152;36.614;2022-08-19T04:21:29;100202.22;;;20.07;67.69
58056;BME280;53159;55.152;36.614;2022-08-19T04:23:56;100209.31;;;19.94;68.96
58056;BME280;53159;55.152;36.614;2022-08-19T04:26:27;100206.56;;;20.16;68.85
58056;BME280;53159;55.152;36.614;2022-08-19T04:28:55;100203.97;;;20.11;69.03
58056;BME280;53159;55.152;36.614;2022-08-19T04:31:25;100205.78;;;20.01;68.43
58056;BME280;53159;55.152;36.614;2022-08-19T04:33:54;100209.28;;;19.97;68.74
58056;BME280;53159;55.152;36.614;2022-08-19T04:36:25;100213.59;;;20.17;69.07
58056;BME280;53159;55.152;36.614;2022-08-19T04:38:56;100220.44;;;20.44;68.32
58056;BME280;53159;55.152;36.614;2022-08-19T04:41:23;100211.59;;;20.51;67.83
58056;BME280;53159;55.152;36.614;2022-08-19T04:44:32;100206.59;;;20.11;68.90
58056;BME280;53159;55.152;36.614;2022-08-19T04:46:59;100204.78;;;20.19;69.22
58056;BME280;53159;55.152;36.614;2022-08-19T04:49:26;100197.84;;;20.03;70.00
58056;BME280;53159;55.152;36.614;2022-08-19T04:51:54;100201.50;;;19.71;70.71
58056;BME280;53159;55.152;36.614;2022-08-19T04:54:23;100196.22;;;19.72;71.58
58056;BME280;53159;55.152;36.614;2022-08-19T04:56:52;100196.28;;;19.55;72.41
58056;BME280;53159;55.152;36.614;2022-08-19T04:59:21;100202.47;;;19.45;73.75
58056;BME280;53159;55.152;36.614;2022-08-19T05:01:49;100197.13;;;19.62;73.38
58056;BME280;53159;55.152;36.614;2022-08-19T05:04:36;100204.97;;;19.85;72.51
58056;BME280;53159;55.152;36.614;2022-08-19T05:07:06;100210.22;;;19.82;73.26
58056;BME280;53159;55.152;36.614;2022-08-19T05:09:37;100215.47;;;19.97;72.73
58056;BME280;53159;55.152;36.614;2022-08-19T05:12:05;100209.16;;;20.20;71.88
58056;BME280;53159;55.152;36.614;2022-08-19T05:14:33;100202.94;;;20.34;71.57
58056;BME280;53159;55.152;36.614;2022-08-19T05:17:00;100196.69;;;20.49;71.08
58056;BME280;53159;55.152;36.614;2022-08-19T05:19:28;100202.84;;;20.48;70.24
58056;BME280;53159;55.152;36.614;2022-08-19T05:22:13;100199.25;;;20.56;69.89
58056;BME280;53159;55.152;36.614;2022-08-19T05:24:59;100197.47;;;20.60;69.26
58056;BME280;53159;55.152;36.614;2022-08-19T05:27:27;100198.94;;;20.97;68.48
58056;BME280;53159;55.152;36.614;2022-08-19T05:29:54;100197.34;;;20.78;67.83
58056;BME280;53159;55.152;36.614;2022-08-19T05:32:20;100197.44;;;20.63;68.86
58056;BME280;53159;55.152;36.614;2022-08-19T05:34:50;100176.34;;;20.63;67.91
58056;BME280;53159;55.152;36.614;2022-08-19T05:37:17;100203.63;;;20.57;69.46
58056;BME280;53159;55.152;36.614;2022-08-19T05:39:44;100211.28;;;20.93;68.17
58056;BME280;53159;55.152;36.614;2022-08-19T05:42:12;100195.22;;;21.15;67.14
58056;BME280;53159;55.152;36.614;2022-08-19T05:44:41;100194.59;;;20.91;67.39
58056;BME280;53159;55.152;36.614;2022-08-19T05:47:18;100203.16;;;21.13;66.77
58056;BME280;53159;55.152;36.614;2022-08-19T05:49:48;100207.56;;;21.14;66.84
58056;BME280;53159;55.152;36.614;2022-08-19T05:52:16;100202.25;;;21.17;66.53
58056;BME280;53159;55.152;36.614;2022-08-19T05:54:43;100212.00;;;21.10;65.87
58056;BME280;53159;55.152;36.614;2022-08-19T05:57:10;100210.41;;;20.94;66.61
58056;BME280;53159;55.152;36.614;2022-08-19T05:59:37;100212.88;;;21.09;66.86
58056;BME280;53159;55.152;36.614;2022-08-19T06:02:06;100211.19;;;21.04;66.08
58056;BME280;53159;55.152;36.614;2022-08-19T06:04:34;100219.13;;;21.04;66.67
58056;BME280;53159;55.152;36.614;2022-08-19T06:07:01;100215.50;;;21.11;66.48
58056;BME280;53159;55.152;36.614;2022-08-19T06:09:28;100218.19;;;21.08;66.96
58056;BME280;53159;55.152;36.614;2022-08-19T06:11:58;100228.91;;;20.89;66.70
58056;BME280;53159;55.152;36.614;2022-08-19T06:14:29;100220.84;;;21.03;67.80
58056;BME280;53159;55.152;36.614;2022-08-19T06:16:58;100214.84;;;20.90;67.84
58056;BME280;53159;55.152;36.614;2022-08-19T06:19:27;100219.22;;;20.91;67.40
58056;BME280;53159;55.152;36.614;2022-08-19T06:21:57;100211.34;;;20.87;68.17
58056;BME280;53159;55.152;36.614;2022-08-19T06:24:26;100215.66;;;20.96;67.80
58056;BME280;53159;55.152;36.614;2022-08-19T06:26:56;100215.69;;;20.92;67.59
58056;BME280;53159;55.152;36.614;2022-08-19T06:29:25;100228.84;;;20.97;67.56
58056;BME280;53159;55.152;36.614;2022-08-19T06:31:57;100229.66;;;21.05;67.71
58056;BME280;53159;55.152;36.614;2022-08-19T06:34:26;100223.47;;;21.08;67.49
58056;BME280;53159;55.152;36.614;2022-08-19T06:36:55;100210.94;;;21.29;67.25
58056;BME280;53159;55.152;36.614;2022-08-19T06:39:25;100208.19;;;21.38;66.71
58056;BME280;53159;55.152;36.614;2022-08-19T06:41:55;100226.66;;;21.38;66.67
58056;BME280;53159;55.152;36.614;2022-08-19T06:44:27;100226.50;;;21.52;66.23
58056;BME280;53159;55.152;36.614;2022-08-19T06:46:55;100224.44;;;21.82;65.61
58056;BME280;53159;55.152;36.614;2022-08-19T06:49:23;100228.88;;;21.77;65.85
58056;BME280;53159;55.152;36.614;2022-08-19T06:51:49;100223.56;;;21.81;65.06
58056;BME280;53159;55.152;36.614;2022-08-19T06:54:17;100215.28;;;21.34;65.44
58056;BME280;53159;55.152;36.614;2022-08-19T06:56:45;100216.81;;;21.54;66.37
58056;BME280;53159;55.152;36.614;2022-08-19T06:59:18;100202.03;;;21.39;67.07
58056;BME280;53159;55.152;36.614;2022-08-19T07:01:50;100217.63;;;21.61;66.59
58056;BME280;53159;55.152;36.614;2022-08-19T07:04:22;100218.16;;;21.90;66.20
58056;BME280;53159;55.152;36.614;2022-08-19T07:06:50;100217.22;;;21.95;64.79
58056;BME280;53159;55.152;36.614;2022-08-19T07:09:18;100198.59;;;22.05;64.35
58056;BME280;53159;55.152;36.614;2022-08-19T07:11:48;100191.34;;;22.18;64.08
58056;BME280;53159;55.152;36.614;2022-08-19T07:14:18;100230.00;;;22.26;63.96
58056;BME280;53159;55.152;36.614;2022-08-19T07:16:47;100215.19;;;22.15;63.95
58056;BME280;53159;55.152;36.614;2022-08-19T07:19:14;100219.38;;;22.29;63.73
58056;BME280;53159;55.152;36.614;2022-08-19T07:21:41;100207.31;;;22.11;63.28
58056;BME280;53159;55.152;36.614;2022-08-19T07:24:08;100217.31;;;21.85;62.89
58056;BME280;53159;55.152;36.614;2022-08-19T07:26:41;100228.03;;;21.76;64.02
58056;BME280;53159;55.152;36.614;2022-08-19T07:29:11;100217.47;;;21.76;64.08
58056;BME280;53159;55.152;36.614;2022-08-19T07:31:38;100232.22;;;21.94;64.27
58056;BME280;53159;55.152;36.614;2022-08-19T07:34:07;100217.31;;;21.85;65.13
58056;BME280;53159;55.152;36.614;2022-08-19T07:36:37;100210.25;;;21.89;64.92
58056;BME280;53159;55.152;36.614;2022-08-19T07:39:09;100223.22;;;22.06;64.73
58056;BME280;53159;55.152;36.614;2022-08-19T07:41:36;100233.84;;;22.04;64.97
58056;BME280;53159;55.152;36.614;2022-08-19T07:44:06;100236.34;;;22.14;65.28
58056;BME280;53159;55.152;36.614;2022-08-19T07:46:39;100246.75;;;22.28;64.08
58056;BME280;53159;55.152;36.614;2022-08-19T07:49:07;100230.72;;;22.37;63.84
58056;BME280;53159;55.152;36.614;2022-08-19T07:51:35;100243.00;;;22.44;63.79
58056;BME280;53159;55.152;36.614;2022-08-19T07:54:02;100243.03;;;22.41;64.02
58056;BME280;53159;55.152;36.614;2022-08-19T07:56:29;100246.50;;;22.45;64.02
58056;BME280;53159;55.152;36.614;2022-08-19T07:58:57;100234.34;;;22.30;64.91
58056;BME280;53159;55.152;36.614;2022-08-19T08:01:26;100241.69;;;22.08;65.65
58056;BME280;53159;55.152;36.614;2022-08-19T08:03:55;100235.03;;;21.82;65.80
58056;BME280;53159;55.152;36.614;2022-08-19T08:06:43;100230.19;;;22.13;66.32
58056;BME280;53159;55.152;36.614;2022-08-19T08:09:33;100229.75;;;22.46;64.57
58056;BME280;53159;55.152;36.614;2022-08-19T08:12:09;100227.59;;;22.71;63.71
58056;BME280;53159;55.152;36.614;2022-08-19T08:14:40;100229.50;;;22.61;63.01
58056;BME280;53159;55.152;36.614;2022-08-19T08:17:08;100227.34;;;22.85;63.20
58056;BME280;53159;55.152;36.614;2022-08-19T08:19:36;100243.19;;;22.86;63.69
58056;BME280;53159;55.152;36.614;2022-08-19T08:22:04;100236.94;;;22.92;61.04
58056;BME280;53159;55.152;36.614;2022-08-19T08:24:34;100229.31;;;23.25;61.98
58056;BME280;53159;55.152;36.614;2022-08-19T08:27:03;100227.44;;;23.32;60.49
58056;BME280;53159;55.152;36.614;2022-08-19T08:29:31;100233.28;;;22.99;61.04
58056;BME280;53159;55.152;36.614;2022-08-19T08:31:58;100229.16;;;22.83;60.36
58056;BME280;53159;55.152;36.614;2022-08-19T08:34:25;100235.25;;;22.86;61.11
58056;BME280;53159;55.152;36.614;2022-08-19T08:36:52;100224.38;;;23.03;60.65
58056;BME280;53159;55.152;36.614;2022-08-19T08:39:20;100213.75;;;23.05;61.37
58056;BME280;53159;55.152;36.614;2022-08-19T08:42:30;100235.84;;;23.04;61.17
58056;BME280;53159;55.152;36.614;2022-08-19T08:45:00;100242.09;;;23.00;60.51
58056;BME280;53159;55.152;36.614;2022-08-19T08:47:36;100238.25;;;23.20;61.45
58056;BME280;53159;55.152;36.614;2022-08-19T08:50:16;100234.59;;;23.27;61.93
58056;BME280;53159;55.152;36.614;2022-08-19T08:52:52;100215.25;;;23.23;61.26
58056;BME280;53159;55.152;36.614;2022-08-19T08:55:23;100214.03;;;23.40;60.74
58056;BME280;53159;55.152;36.614;2022-08-19T08:58:05;100238.31;;;23.62;60.91
58056;BME280;53159;55.152;36.614;2022-08-19T09:00:39;100227.56;;;23.71;59.65
58056;BME280;53159;55.152;36.614;2022-08-19T09:03:19;100223.84;;;23.78;59.82
58056;BME280;53159;55.152;36.614;2022-08-19T09:05:59;100232.66;;;23.80;60.18
58056;BME280;53159;55.152;36.614;2022-08-19T09:08:43;100232.63;;;23.82;60.15
58056;BME280;53159;55.152;36.614;2022-08-19T09:11:34;100227.84;;;24.01;60.35
58056;BME280;53159;55.152;36.614;2022-08-19T09:14:44;100211.97;;;23.98;58.96
58056;BME280;53159;55.152;36.614;2022-08-19T09:17:14;100223.47;;;23.98;59.05
58056;BME280;53159;55.152;36.614;2022-08-19T09:22:37;100207.44;;;23.61;59.04
58056;BME280;53159;55.152;36.614;2022-08-19T09:25:08;100220.25;;;23.82;59.67
58056;BME280;53159;55.152;36.614;2022-08-19T09:27:37;100241.00;;;24.04;58.66
58056;BME280;53159;55.152;36.614;2022-08-19T09:30:07;100232.41;;;23.93;56.72
58056;BME280;53159;55.152;36.614;2022-08-19T09:32:35;100211.66;;;23.71;55.32
58056;BME280;53159;55.152;36.614;2022-08-19T09:35:04;100206.75;;;23.95;55.78
58056;BME280;53159;55.152;36.614;2022-08-19T09:37:32;100204.66;;;24.09;56.07
58056;BME280;53159;55.152;36.614;2022-08-19T09:39:59;100217.75;;;24.17;55.61
58056;BME280;53159;55.152;36.614;2022-08-19T09:42:25;100229.22;;;24.18;56.37
58056;BME280;53159;55.152;36.614;2022-08-19T09:44:55;100234.47;;;24.21;55.55
58056;BME280;53159;55.152;36.614;2022-08-19T09:47:22;100232.09;;;24.08;55.44
58056;BME280;53159;55.152;36.614;2022-08-19T09:49:49;100226.00;;;24.05;55.35
58056;BME280;53159;55.152;36.614;2022-08-19T09:52:16;100209.25;;;24.03;55.11
58056;BME280;53159;55.152;36.614;2022-08-19T09:54:44;100203.88;;;24.04;55.40
58056;BME280;53159;55.152;36.614;2022-08-19T09:57:10;100221.75;;;24.35;55.45
58056;BME280;53159;55.152;36.614;2022-08-19T09:59:42;100227.03;;;24.37;55.37
58056;BME280;53159;55.152;36.614;2022-08-19T10:02:12;100217.50;;;24.28;54.32
58056;BME280;53159;55.152;36.614;2022-08-19T10:04:39;100211.28;;;24.29;54.26
58056;BME280;53159;55.152;36.614;2022-08-19T10:07:24;100215.72;;;24.28;54.10
58056;BME280;53159;55.152;36.614;2022-08-19T10:09:51;100211.41;;;24.24;53.22
58056;BME280;53159;55.152;36.614;2022-08-19T10:12:18;100214.25;;;24.15;52.59
58056;BME280;53159;55.152;36.614;2022-08-19T10:14:49;100215.13;;;24.17;52.60
58056;BME280;53159;55.152;36.614;2022-08-19T10:17:18;100225.88;;;24.09;51.29
58056;BME280;53159;55.152;36.614;2022-08-19T10:19:45;100232.50;;;24.29;51.98
58056;BME280;53159;55.152;36.614;2022-08-19T10:22:12;100216.44;;;24.35;51.72
58056;BME280;53159;55.152;36.614;2022-08-19T10:24:40;100232.63;;;24.24;50.46
58056;BME280;53159;55.152;36.614;2022-08-19T10:27:07;100246.75;;;24.25;48.44
58056;BME280;53159;55.152;36.614;2022-08-19T10:29:35;100244.53;;;24.45;48.31
58056;BME280;53159;55.152;36.614;2022-08-19T10:32:07;100242.63;;;24.51;47.92
58056;BME280;53159;55.152;36.614;2022-08-19T10:34:37;100235.00;;;24.37;47.64
58056;BME280;53159;55.152;36.614;2022-08-19T10:37:05;100246.09;;;24.53;48.10
58056;BME280;53159;55.152;36.614;2022-08-19T10:39:35;100198.72;;;24.37;47.90
58056;BME280;53159;55.152;36.614;2022-08-19T10:42:06;100233.81;;;24.49;48.30
58056;BME280;53159;55.152;36.614;2022-08-19T10:44:33;100220.41;;;24.55;48.79
58056;BME280;53159;55.152;36.614;2022-08-19T10:47:03;100228.91;;;24.33;48.99
58056;BME280;53159;55.152;36.614;2022-08-19T10:49:31;100225.88;;;24.49;48.89
58056;BME280;53159;55.152;36.614;2022-08-19T10:51:59;100207.28;;;24.49;49.49
58056;BME280;53159;55.152;36.614;2022-08-19T10:54:46;100215.19;;;24.52;49.79
58056;BME280;53159;55.152;36.614;2022-08-19T10:57:32;100196.78;;;24.45;49.64
58056;BME280;53159;55.152;36.614;2022-08-19T11:00:03;100213.34;;;24.55;49.35
58056;BME280;53159;55.152;36.614;2022-08-19T11:02:30;100203.59;;;24.56;49.80
58056;BME280;53159;55.152;36.614;2022-08-19T11:05:01;100206.09;;;24.62;49.51
58056;BME280;53159;55.152;36.614;2022-08-19T11:07:28;100201.50;;;24.70;49.14
58056;BME280;53159;55.152;36.614;2022-08-19T11:09:56;100208.91;;;24.92;47.19
58056;BME280;53159;55.152;36.614;2022-08-19T11:12:43;100212.78;;;24.78;46.93
58056;BME280;53159;55.152;36.614;2022-08-19T11:15:15;100186.22;;;24.78;45.97
58056;BME280;53159;55.152;36.614;2022-08-19T11:17:43;100173.84;;;24.79;44.70
58056;BME280;53159;55.152;36.614;2022-08-19T11:20:14;100180.81;;;24.83;45.05
58056;BME280;53159;55.152;36.614;2022-08-19T11:22:41;100190.44;;;24.87;45.19
58056;BME280;53159;55.152;36.614;2022-08-19T11:25:09;100179.59;;;24.60;45.27
58056;BME280;53159;55.152;36.614;2022-08-19T11:27:40;100180.19;;;24.73;45.75
58056;BME280;53159;55.152;36.614;2022-08-19T11:30:12;100194.28;;;24.75;45.75
58056;BME280;53159;55.152;36.614;2022-08-19T11:32:42;100183.84;;;24.69;44.56
58056;BME280;53159;55.152;36.614;2022-08-19T11:35:09;100184.25;;;24.87;45.35
58056;BME280;53159;55.152;36.614;2022-08-19T11:37:37;100184.31;;;24.85;44.60
58056;BME280;53159;55.152;36.614;2022-08-19T11:40:05;100207.13;;;24.92;42.89
58056;BME280;53159;55.152;36.614;2022-08-19T11:42:32;100188.72;;;24.86;42.49
58056;BME280;53159;55.152;36.614;2022-08-19T11:45:23;100216.53;;;25.04;42.47
58056;BME280;53159;55.152;36.614;2022-08-19T11:47:51;100208.56;;;25.04;41.86
58056;BME280;53159;55.152;36.614;2022-08-19T11:50:20;100222.75;;;25.03;42.72
58056;BME280;53159;55.152;36.614;2022-08-19T11:52:47;100209.84;;;24.89;42.26
58056;BME280;53159;55.152;36.614;2022-08-19T11:55:16;100205.06;;;25.04;42.63
58056;BME280;53159;55.152;36.614;2022-08-19T11:57:46;100189.03;;;25.07;42.73
58056;BME280;53159;55.152;36.614;2022-08-19T12:00:14;100195.03;;;25.15;42.57
58056;BME280;53159;55.152;36.614;2022-08-19T12:02:42;100175.88;;;25.02;41.79
58056;BME280;53159;55.152;36.614;2022-08-19T12:05:11;100187.25;;;25.07;42.83
58056;BME280;53159;55.152;36.614;2022-08-19T12:07:40;100189.03;;;25.07;42.74
58056;BME280;53159;55.152;36.614;2022-08-19T12:10:08;100191.50;;;25.15;42.58
58056;BME280;53159;55.152;36.614;2022-08-19T12:12:34;100198.69;;;25.11;42.63
58056;BME280;53159;55.152;36.614;2022-08-19T12:15:05;100222.09;;;25.30;42.99
58056;BME280;53159;55.152;36.614;2022-08-19T12:17:43;100185.97;;;24.89;42.34
58056;BME280;53159;55.152;36.614;2022-08-19T12:20:16;100180.91;;;24.80;42.25
58056;BME280;53159;55.152;36.614;2022-08-19T12:23:01;100194.34;;;24.74;41.85
58056;BME280;53159;55.152;36.614;2022-08-19T12:25:31;100191.44;;;24.83;41.71
58056;BME280;53159;55.152;36.614;2022-08-19T12:28:19;100247.28;;;24.78;41.46
58056;BME280;53159;55.152;36.614;2022-08-19T12:31:07;100206.59;;;24.40;41.53
58056;BME280;53159;55.152;36.614;2022-08-19T12:33:42;100204.28;;;24.62;41.99
58056;BME280;53159;55.152;36.614;2022-08-19T12:36:11;100210.28;;;24.72;42.69
58056;BME280;53159;55.152;36.614;2022-08-19T12:38:42;100205.53;;;24.47;42.09
58056;BME280;53159;55.152;36.614;2022-08-19T12:41:15;100206.53;;;24.43;41.78
58056;BME280;53159;55.152;36.614;2022-08-19T12:43:47;100232.72;;;24.57;42.31
58056;BME280;53159;55.152;36.614;2022-08-19T12:46:26;100208.06;;;24.16;42.50
58056;BME280;53159;55.152;36.614;2022-08-19T12:49:24;100245.94;;;24.21;42.74
58056;BME280;53159;55.152;36.614;2022-08-19T12:52:25;100246.94;;;24.15;43.56
58056;BME280;53159;55.152;36.614;2022-08-19T12:55:09;100219.13;;;23.96;43.82
58056;BME280;53159;55.152;36.614;2022-08-19T12:57:40;100210.50;;;23.83;44.11
58056;BME280;53159;55.152;36.614;2022-08-19T13:00:37;100242.84;;;24.02;44.32
58056;BME280;53159;55.152;36.614;2022-08-19T13:03:07;100214.78;;;23.92;43.82
58056;BME280;53159;55.152;36.614;2022-08-19T13:05:40;100226.31;;;23.88;44.08